createdAt,value
2018-09-09T00:00:22.674Z,14.51
2018-09-09T00:01:22.853Z,14.51
2018-09-09T00:02:23.041Z,14.50
2018-09-09T00:03:23.313Z,14.47
2018-09-09T00:04:23.424Z,14.47
2018-09-09T00:05:23.598Z,14.35
2018-09-09T00:06:23.768Z,14.51
2018-09-09T00:07:23.994Z,14.45
2018-09-09T00:08:24.052Z,14.47
2018-09-09T00:09:28.042Z,14.43
2018-09-09T00:10:24.402Z,14.41
2018-09-09T00:11:24.450Z,14.41
2018-09-09T00:12:24.618Z,14.35
2018-09-09T00:13:24.789Z,14.29
2018-09-09T00:14:24.960Z,14.32
2018-09-09T00:15:25.134Z,14.43
2018-09-09T00:16:25.306Z,14.40
2018-09-09T00:17:25.482Z,14.35
2018-09-09T00:18:25.657Z,14.40
2018-09-09T00:19:25.845Z,14.26
2018-09-09T00:20:26.014Z,14.20
2018-09-09T00:21:26.193Z,14.28
2018-09-09T00:22:26.370Z,14.15
2018-09-09T00:23:26.551Z,14.14
2018-09-09T00:24:26.730Z,14.03
2018-09-09T00:25:31.786Z,14.10
2018-09-09T00:26:27.036Z,14.05
2018-09-09T00:27:27.200Z,14.08
2018-09-09T00:28:27.381Z,14.17
2018-09-09T00:29:27.550Z,14.08
2018-09-09T00:30:27.725Z,14.17
2018-09-09T00:31:27.899Z,14.22
2018-09-09T00:32:28.082Z,14.18
2018-09-09T00:33:28.255Z,14.05
2018-09-09T00:34:28.430Z,13.96
2018-09-09T00:35:31.898Z,13.92
2018-09-09T00:36:33.372Z,13.96
2018-09-09T00:37:31.250Z,14.00
2018-09-09T00:38:33.725Z,14.00
2018-09-09T00:39:32.527Z,14.12
2018-09-09T00:40:30.657Z,14.10
2018-09-09T00:41:35.230Z,14.22
2018-09-09T00:42:29.762Z,14.08
2018-09-09T00:43:29.932Z,14.08
2018-09-09T00:44:30.109Z,14.15
2018-09-09T00:45:30.281Z,14.08
2018-09-09T00:46:30.632Z,14.23
2018-09-09T00:47:31.472Z,14.04
2018-09-09T00:48:31.057Z,14.15
2018-09-09T00:49:31.129Z,14.07
2018-09-09T00:50:36.686Z,14.05
2018-09-09T00:51:35.961Z,14.05
2018-09-09T00:52:31.508Z,14.03
2018-09-09T00:53:31.694Z,14.08
2018-09-09T00:54:31.872Z,14.11
2018-09-09T00:55:32.046Z,14.08
2018-09-09T00:56:32.219Z,14.12
2018-09-09T00:57:32.401Z,14.11
2018-09-09T00:58:32.573Z,14.00
2018-09-09T00:59:32.757Z,13.99
2018-09-09T01:00:32.946Z,14.04
2018-09-09T01:01:33.123Z,14.10
2018-09-09T01:02:33.321Z,14.11
2018-09-09T01:03:33.485Z,14.10
2018-09-09T01:04:33.655Z,14.05
2018-09-09T01:05:33.834Z,14.11
2018-09-09T01:06:34.004Z,14.12
2018-09-09T01:07:34.180Z,14.08
2018-09-09T01:08:34.357Z,14.07
2018-09-09T01:09:34.531Z,14.14
2018-09-09T01:10:34.764Z,14.08
2018-09-09T01:11:37.458Z,14.08
2018-09-09T01:12:34.980Z,14.12
2018-09-09T01:13:35.148Z,14.11
2018-09-09T01:14:35.324Z,14.11
2018-09-09T01:15:35.492Z,14.15
2018-09-09T01:16:35.669Z,14.04
2018-09-09T01:17:35.854Z,14.20
2018-09-09T01:18:36.036Z,14.04
2018-09-09T01:19:36.213Z,14.10
2018-09-09T01:20:36.380Z,14.08
2018-09-09T01:21:36.556Z,13.96
2018-09-09T01:22:36.725Z,14.04
2018-09-09T01:23:36.904Z,14.07
2018-09-09T01:24:37.081Z,14.07
2018-09-09T01:25:37.269Z,14.04
2018-09-09T01:26:37.445Z,14.00
2018-09-09T01:27:37.640Z,13.96
2018-09-09T01:28:42.286Z,13.93
2018-09-09T01:29:37.921Z,13.95
2018-09-09T01:30:38.089Z,13.97
2018-09-09T01:31:38.261Z,14.03
2018-09-09T01:32:38.437Z,14.03
2018-09-09T01:33:38.609Z,14.00
2018-09-09T01:34:38.785Z,14.11
2018-09-09T01:35:38.970Z,14.05
2018-09-09T01:36:39.143Z,14.08
2018-09-09T01:37:39.308Z,14.04
2018-09-09T01:38:39.488Z,13.99
2018-09-09T01:39:39.662Z,13.97
2018-09-09T01:40:39.830Z,13.95
2018-09-09T01:41:40.015Z,13.95
2018-09-09T01:42:40.189Z,14.05
2018-09-09T01:43:40.364Z,13.99
2018-09-09T01:44:40.543Z,13.92
2018-09-09T01:45:40.714Z,14.10
2018-09-09T01:46:40.889Z,14.04
2018-09-09T01:47:41.062Z,14.11
2018-09-09T01:48:41.244Z,13.97
2018-09-09T01:49:41.415Z,13.90
2018-09-09T01:50:41.588Z,13.97
2018-09-09T01:51:41.774Z,13.92
2018-09-09T01:52:43.365Z,13.92
2018-09-09T01:53:42.056Z,13.92
2018-09-09T01:54:42.229Z,13.90
2018-09-09T01:55:42.398Z,13.97
2018-09-09T01:56:42.574Z,13.96
2018-09-09T01:57:42.745Z,13.93
2018-09-09T01:58:42.920Z,13.92
2018-09-09T01:59:43.097Z,13.92
2018-09-09T02:00:43.278Z,14.03
2018-09-09T02:01:43.450Z,13.83
2018-09-09T02:02:43.621Z,13.95
2018-09-09T02:03:43.790Z,13.85
2018-09-09T02:04:43.964Z,13.92
2018-09-09T02:05:44.139Z,13.92
2018-09-09T02:06:44.318Z,13.90
2018-09-09T02:07:44.489Z,13.97
2018-09-09T02:08:44.678Z,13.95
2018-09-09T02:09:44.851Z,13.86
2018-09-09T02:10:45.023Z,13.92
2018-09-09T02:11:45.196Z,13.86
2018-09-09T02:12:45.381Z,13.83
2018-09-09T02:13:45.576Z,13.85
2018-09-09T02:14:45.745Z,13.81
2018-09-09T02:15:45.923Z,13.77
2018-09-09T02:16:46.100Z,13.68
2018-09-09T02:17:46.271Z,13.72
2018-09-09T02:18:46.452Z,13.68
2018-09-09T02:19:46.625Z,13.81
2018-09-09T02:20:46.806Z,13.85
2018-09-09T02:21:46.976Z,13.75
2018-09-09T02:22:47.156Z,13.71
2018-09-09T02:23:47.365Z,13.71
2018-09-09T02:24:47.545Z,13.65
2018-09-09T02:25:47.748Z,13.60
2018-09-09T02:26:47.897Z,13.60
2018-09-09T02:27:48.075Z,13.67
2018-09-09T02:28:48.250Z,13.65
2018-09-09T02:29:48.416Z,13.56
2018-09-09T02:30:48.598Z,13.67
2018-09-09T02:31:48.768Z,13.52
2018-09-09T02:32:48.948Z,13.54
2018-09-09T02:33:49.128Z,13.57
2018-09-09T02:34:49.307Z,13.60
2018-09-09T02:35:49.484Z,13.54
2018-09-09T02:36:49.650Z,13.33
2018-09-09T02:37:49.818Z,13.18
2018-09-09T02:38:49.985Z,13.28
2018-09-09T02:39:50.175Z,13.37
2018-09-09T02:40:50.364Z,13.31
2018-09-09T02:41:50.516Z,13.28
2018-09-09T02:42:50.701Z,13.39
2018-09-09T02:43:50.984Z,13.38
2018-09-09T02:44:51.089Z,13.33
2018-09-09T02:45:51.270Z,13.27
2018-09-09T02:46:51.445Z,13.13
2018-09-09T02:47:51.687Z,13.01
2018-09-09T02:48:51.739Z,13.16
2018-09-09T02:49:51.912Z,13.12
2018-09-09T02:50:52.080Z,13.03
2018-09-09T02:51:52.256Z,13.04
2018-09-09T02:52:52.423Z,13.04
2018-09-09T02:53:52.602Z,12.90
2018-09-09T02:54:52.779Z,13.01
2018-09-09T02:55:53.028Z,12.95
2018-09-09T02:56:53.176Z,13.01
2018-09-09T02:57:53.241Z,12.87
2018-09-09T02:58:53.416Z,12.98
2018-09-09T02:59:53.595Z,13.00
2018-09-09T03:00:53.775Z,13.08
2018-09-09T03:01:53.945Z,13.08
2018-09-09T03:02:54.128Z,12.91
2018-09-09T03:03:54.292Z,13.04
2018-09-09T03:04:54.470Z,12.98
2018-09-09T03:05:54.638Z,12.90
2018-09-09T03:06:54.809Z,12.85
2018-09-09T03:07:54.984Z,12.87
2018-09-09T03:08:55.227Z,12.93
2018-09-09T03:09:55.283Z,12.86
2018-09-09T03:10:55.516Z,12.90
2018-09-09T03:11:55.645Z,12.79
2018-09-09T03:12:55.812Z,12.85
2018-09-09T03:13:55.999Z,12.90
2018-09-09T03:14:56.186Z,12.83
2018-09-09T03:15:56.372Z,12.75
2018-09-09T03:16:56.549Z,12.76
2018-09-09T03:17:56.762Z,12.76
2018-09-09T03:18:56.942Z,12.85
2018-09-09T03:19:57.110Z,12.93
2018-09-09T03:20:57.369Z,12.87
2018-09-09T03:21:57.434Z,12.98
2018-09-09T03:22:57.614Z,12.91
2018-09-09T03:23:57.792Z,12.98
2018-09-09T03:24:57.962Z,12.95
2018-09-09T03:25:58.136Z,12.91
2018-09-09T03:26:58.306Z,12.90
2018-09-09T03:27:58.485Z,12.93
2018-09-09T03:28:58.669Z,12.98
2018-09-09T03:29:58.848Z,12.95
2018-09-09T03:30:59.022Z,13.00
2018-09-09T03:31:59.262Z,12.94
2018-09-09T03:32:59.455Z,12.94
2018-09-09T03:33:59.595Z,13.00
2018-09-09T03:34:59.764Z,13.03
2018-09-09T03:35:59.936Z,13.00
2018-09-09T03:37:00.114Z,13.00
2018-09-09T03:38:00.292Z,13.00
2018-09-09T03:39:00.461Z,12.86
2018-09-09T03:40:00.634Z,13.03
2018-09-09T03:41:00.814Z,12.93
2018-09-09T03:42:00.992Z,13.03
2018-09-09T03:43:01.159Z,13.00
2018-09-09T03:44:01.330Z,12.97
2018-09-09T03:45:01.512Z,13.00
2018-09-09T03:46:01.681Z,13.01
2018-09-09T03:47:01.863Z,12.85
2018-09-09T03:48:02.034Z,12.91
2018-09-09T03:49:02.207Z,12.86
2018-09-09T03:50:02.376Z,12.93
2018-09-09T03:51:02.559Z,13.00
2018-09-09T03:52:05.169Z,12.79
2018-09-09T03:53:07.895Z,12.70
2018-09-09T03:54:03.389Z,12.70
2018-09-09T03:55:07.907Z,12.87
2018-09-09T03:56:03.463Z,12.94
2018-09-09T03:57:03.645Z,12.97
2018-09-09T03:58:03.810Z,12.95
2018-09-09T03:59:03.985Z,12.97
2018-09-09T04:00:04.158Z,13.01
2018-09-09T04:01:04.329Z,12.90
2018-09-09T04:02:04.510Z,12.91
2018-09-09T04:03:04.773Z,12.87
2018-09-09T04:04:04.910Z,12.93
2018-09-09T04:05:04.961Z,13.08
2018-09-09T04:06:05.132Z,13.03
2018-09-09T04:07:05.309Z,13.08
2018-09-09T04:08:05.477Z,13.00
2018-09-09T04:09:05.649Z,12.90
2018-09-09T04:10:05.868Z,13.00
2018-09-09T04:11:06.005Z,13.00
2018-09-09T04:12:06.173Z,12.86
2018-09-09T04:13:06.360Z,12.94
2018-09-09T04:14:06.541Z,12.93
2018-09-09T04:15:06.768Z,13.04
2018-09-09T04:16:06.826Z,13.00
2018-09-09T04:17:07.026Z,12.98
2018-09-09T04:18:07.201Z,12.94
2018-09-09T04:19:07.382Z,12.95
2018-09-09T04:20:07.549Z,13.05
2018-09-09T04:21:07.718Z,12.91
2018-09-09T04:22:07.904Z,12.86
2018-09-09T04:23:08.089Z,12.90
2018-09-09T04:24:08.282Z,12.94
2018-09-09T04:25:08.447Z,13.00
2018-09-09T04:26:08.644Z,13.03
2018-09-09T04:27:08.842Z,13.04
2018-09-09T04:28:09.175Z,12.90
2018-09-09T04:29:09.134Z,12.98
2018-09-09T04:30:09.305Z,12.97
2018-09-09T04:31:09.540Z,13.04
2018-09-09T04:32:09.777Z,12.94
2018-09-09T04:33:09.888Z,12.98
2018-09-09T04:34:10.064Z,12.98
2018-09-09T04:35:10.241Z,12.94
2018-09-09T04:36:10.418Z,13.05
2018-09-09T04:37:10.606Z,13.05
2018-09-09T04:38:10.771Z,13.03
2018-09-09T04:39:10.991Z,13.08
2018-09-09T04:40:11.050Z,13.03
2018-09-09T04:41:11.228Z,13.04
2018-09-09T04:42:11.395Z,13.04
2018-09-09T04:43:11.571Z,13.04
2018-09-09T04:44:11.744Z,13.00
2018-09-09T04:45:11.919Z,13.08
2018-09-09T04:46:12.172Z,13.00
2018-09-09T04:47:12.271Z,13.08
2018-09-09T04:48:12.439Z,13.05
2018-09-09T04:49:12.627Z,13.04
2018-09-09T04:50:12.802Z,13.01
2018-09-09T04:51:12.971Z,12.95
2018-09-09T04:52:13.146Z,13.03
2018-09-09T04:53:16.187Z,12.83
2018-09-09T04:54:15.993Z,12.94
2018-09-09T04:55:13.623Z,12.97
2018-09-09T04:56:13.795Z,13.03
2018-09-09T04:57:13.963Z,13.05
2018-09-09T04:58:14.135Z,12.83
2018-09-09T04:59:14.307Z,13.12
2018-09-09T05:00:14.478Z,13.00
2018-09-09T05:01:14.702Z,13.00
2018-09-09T05:02:14.820Z,12.87
2018-09-09T05:03:15.002Z,12.87
2018-09-09T05:04:15.294Z,13.01
2018-09-09T05:05:15.342Z,13.05
2018-09-09T05:06:15.521Z,12.91
2018-09-09T05:07:15.703Z,13.01
2018-09-09T05:08:15.875Z,12.98
2018-09-09T05:09:16.050Z,12.87
2018-09-09T05:10:16.228Z,13.04
2018-09-09T05:11:16.411Z,12.98
2018-09-09T05:12:16.567Z,12.98
2018-09-09T05:13:18.372Z,13.03
2018-09-09T05:14:19.419Z,13.05
2018-09-09T05:15:16.987Z,13.11
2018-09-09T05:16:17.165Z,12.97
2018-09-09T05:17:17.345Z,13.05
2018-09-09T05:18:17.518Z,13.15
2018-09-09T05:19:17.692Z,13.19
2018-09-09T05:20:17.867Z,13.23
2018-09-09T05:21:18.038Z,13.19
2018-09-09T05:22:18.215Z,13.15
2018-09-09T05:23:19.115Z,13.20
2018-09-09T05:24:18.557Z,13.11
2018-09-09T05:25:18.730Z,13.11
2018-09-09T05:26:18.910Z,13.04
2018-09-09T05:27:19.088Z,13.16
2018-09-09T05:28:19.260Z,13.20
2018-09-09T05:29:19.446Z,13.20
2018-09-09T05:30:24.670Z,13.18
2018-09-09T05:31:21.587Z,13.09
2018-09-09T05:32:23.903Z,13.15
2018-09-09T05:33:25.409Z,13.15
2018-09-09T05:34:22.482Z,13.16
2018-09-09T05:35:21.129Z,13.00
2018-09-09T05:36:20.717Z,13.00
2018-09-09T05:37:20.900Z,13.04
2018-09-09T05:38:21.074Z,13.08
2018-09-09T05:39:21.298Z,13.04
2018-09-09T05:40:21.364Z,13.04
2018-09-09T05:41:21.537Z,13.15
2018-09-09T05:42:21.757Z,13.20
2018-09-09T05:43:21.888Z,13.31
2018-09-09T05:44:22.051Z,13.28
2018-09-09T05:45:22.240Z,13.31
2018-09-09T05:46:22.414Z,13.35
2018-09-09T05:47:22.582Z,13.47
2018-09-09T05:48:22.768Z,13.50
2018-09-09T05:49:22.955Z,13.49
2018-09-09T05:50:23.136Z,13.59
2018-09-09T05:51:23.351Z,13.54
2018-09-09T05:52:23.484Z,13.54
2018-09-09T05:53:24.245Z,13.57
2018-09-09T05:54:25.645Z,13.52
2018-09-09T05:55:24.713Z,13.56
2018-09-09T05:56:26.901Z,13.63
2018-09-09T05:57:24.689Z,13.62
2018-09-09T05:58:24.484Z,13.57
2018-09-09T05:59:24.650Z,13.53
2018-09-09T06:00:24.833Z,13.71
2018-09-09T06:01:25.015Z,13.62
2018-09-09T06:02:25.183Z,13.68
2018-09-09T06:03:25.378Z,13.65
2018-09-09T06:04:25.526Z,13.83
2018-09-09T06:05:25.699Z,13.67
2018-09-09T06:06:25.929Z,13.86
2018-09-09T06:07:26.080Z,13.87
2018-09-09T06:08:29.975Z,13.85
2018-09-09T06:09:26.826Z,13.81
2018-09-09T06:10:27.638Z,13.71
2018-09-09T06:11:29.146Z,13.78
2018-09-09T06:12:28.377Z,13.83
2018-09-09T06:13:29.380Z,13.75
2018-09-09T06:14:28.380Z,13.74
2018-09-09T06:15:28.143Z,13.85
2018-09-09T06:16:30.043Z,13.68
2018-09-09T06:17:29.587Z,13.68
2018-09-09T06:18:30.024Z,13.83
2018-09-09T06:19:31.099Z,13.99
2018-09-09T06:20:31.091Z,13.96
2018-09-09T06:21:32.918Z,13.97
2018-09-09T06:22:30.944Z,14.00
2018-09-09T06:23:28.695Z,14.05
2018-09-09T06:24:30.688Z,14.07
2018-09-09T06:25:30.524Z,14.30
2018-09-09T06:26:29.316Z,14.41
2018-09-09T06:27:31.598Z,14.58
2018-09-09T06:28:32.647Z,14.62
2018-09-09T06:29:34.257Z,14.73
2018-09-09T06:30:30.041Z,14.88
2018-09-09T06:31:30.220Z,14.99
2018-09-09T06:32:30.391Z,15.22
2018-09-09T06:33:30.604Z,15.19
2018-09-09T06:34:30.835Z,15.40
2018-09-09T06:35:31.601Z,15.67
2018-09-09T06:36:31.015Z,15.77
2018-09-09T06:37:31.429Z,15.88
2018-09-09T06:38:34.521Z,15.91
2018-09-09T06:39:34.580Z,15.92
2018-09-09T06:40:35.901Z,16.53
2018-09-09T06:41:35.118Z,17.48
2018-09-09T06:42:32.020Z,17.92
2018-09-09T06:43:32.162Z,18.25
2018-09-09T06:44:32.432Z,19.00
2018-09-09T06:45:32.480Z,19.77
2018-09-09T06:46:32.657Z,20.07
2018-09-09T06:47:32.827Z,20.09
2018-09-09T06:48:33.000Z,20.24
2018-09-09T06:49:33.178Z,20.88
2018-09-09T06:50:33.392Z,20.87
2018-09-09T06:51:33.561Z,20.77
2018-09-09T06:52:33.783Z,20.95
2018-09-09T06:53:33.983Z,20.90
2018-09-09T06:54:34.265Z,20.72
2018-09-09T06:55:34.302Z,20.21
2018-09-09T06:56:37.210Z,19.63
2018-09-09T06:57:34.776Z,19.48
2018-09-09T06:58:34.819Z,19.24
2018-09-09T06:59:35.490Z,19.16
2018-09-09T07:00:35.238Z,18.95
2018-09-09T07:01:35.411Z,18.83
2018-09-09T07:02:35.601Z,18.75
2018-09-09T07:03:35.847Z,18.62
2018-09-09T07:04:36.168Z,18.37
2018-09-09T07:05:36.177Z,18.35
2018-09-09T07:06:36.258Z,18.40
2018-09-09T07:07:36.491Z,18.63
2018-09-09T07:08:36.651Z,18.75
2018-09-09T07:09:36.841Z,18.68
2018-09-09T07:10:37.023Z,18.37
2018-09-09T07:11:37.351Z,18.10
2018-09-09T07:12:37.418Z,18.11
2018-09-09T07:13:37.613Z,18.20
2018-09-09T07:14:37.791Z,18.15
2018-09-09T07:15:38.640Z,17.95
2018-09-09T07:16:38.133Z,17.89
2018-09-09T07:17:38.326Z,17.70
2018-09-09T07:18:38.505Z,17.72
2018-09-09T07:19:38.745Z,17.74
2018-09-09T07:20:38.816Z,17.72
2018-09-09T07:21:38.985Z,17.70
2018-09-09T07:22:39.403Z,17.79
2018-09-09T07:23:39.332Z,17.65
2018-09-09T07:24:39.522Z,17.65
2018-09-09T07:25:40.099Z,17.67
2018-09-09T07:26:39.927Z,17.67
2018-09-09T07:27:42.722Z,17.64
2018-09-09T07:28:40.378Z,17.64
2018-09-09T07:29:40.533Z,17.45
2018-09-09T07:30:40.714Z,17.46
2018-09-09T07:31:40.898Z,17.48
2018-09-09T07:32:41.075Z,17.57
2018-09-09T07:33:41.287Z,17.56
2018-09-09T07:34:41.463Z,17.57
2018-09-09T07:35:42.411Z,17.68
2018-09-09T07:36:43.350Z,17.78
2018-09-09T07:37:43.303Z,17.87
2018-09-09T07:38:43.070Z,18.08
2018-09-09T07:39:43.459Z,18.19
2018-09-09T07:40:44.973Z,18.26
2018-09-09T07:41:44.809Z,18.33
2018-09-09T07:42:43.018Z,18.50
2018-09-09T07:43:43.855Z,18.45
2018-09-09T07:44:44.212Z,18.52
2018-09-09T07:45:44.100Z,18.52
2018-09-09T07:46:43.668Z,18.53
2018-09-09T07:47:44.119Z,18.50
2018-09-09T07:48:43.982Z,18.62
2018-09-09T07:49:45.021Z,18.58
2018-09-09T07:50:45.464Z,18.60
2018-09-09T07:51:44.679Z,18.52
2018-09-09T07:52:45.197Z,18.41
2018-09-09T07:53:45.741Z,18.60
2018-09-09T07:54:46.103Z,18.59
2018-09-09T07:55:44.788Z,18.70
2018-09-09T07:56:44.983Z,18.63
2018-09-09T07:57:45.159Z,18.70
2018-09-09T07:58:45.355Z,18.43
2018-09-09T07:59:45.529Z,18.58
2018-09-09T08:00:45.710Z,18.55
2018-09-09T08:01:45.899Z,18.55
2018-09-09T08:02:46.072Z,18.56
2018-09-09T08:03:46.248Z,18.55
2018-09-09T08:04:46.418Z,18.50
2018-09-09T08:05:46.593Z,18.41
2018-09-09T08:06:46.769Z,18.49
2018-09-09T08:07:46.953Z,18.58
2018-09-09T08:08:47.140Z,18.66
2018-09-09T08:09:47.366Z,18.78
2018-09-09T08:10:47.533Z,18.96
2018-09-09T08:11:47.720Z,19.02
2018-09-09T08:12:47.968Z,18.98
2018-09-09T08:13:48.035Z,19.15
2018-09-09T08:14:48.230Z,19.15
2018-09-09T08:15:48.412Z,19.33
2018-09-09T08:16:48.585Z,19.44
2018-09-09T08:17:48.765Z,19.39
2018-09-09T08:18:48.945Z,19.59
2018-09-09T08:19:49.118Z,19.79
2018-09-09T08:20:49.295Z,20.13
2018-09-09T08:21:49.478Z,20.36
2018-09-09T08:22:49.651Z,20.44
2018-09-09T08:23:49.840Z,20.70
2018-09-09T08:24:50.006Z,20.90
2018-09-09T08:25:50.322Z,21.02
2018-09-09T08:26:50.479Z,20.95
2018-09-09T08:27:50.595Z,20.93
2018-09-09T08:28:50.641Z,21.07
2018-09-09T08:29:50.835Z,21.12
2018-09-09T08:30:51.017Z,21.45
2018-09-09T08:31:51.195Z,21.76
2018-09-09T08:32:51.399Z,21.83
2018-09-09T08:33:51.587Z,22.15
2018-09-09T08:34:51.825Z,22.48
2018-09-09T08:35:51.949Z,22.62
2018-09-09T08:36:52.134Z,22.90
2018-09-09T08:37:52.314Z,23.31
2018-09-09T08:38:52.536Z,23.50
2018-09-09T08:39:52.693Z,23.73
2018-09-09T08:40:52.868Z,23.50
2018-09-09T08:41:53.052Z,23.69
2018-09-09T08:42:53.235Z,23.71
2018-09-09T08:43:53.430Z,23.59
2018-09-09T08:44:53.615Z,23.31
2018-09-09T08:45:53.791Z,23.24
2018-09-09T08:46:53.968Z,23.08
2018-09-09T08:47:54.148Z,23.02
2018-09-09T08:48:54.324Z,23.05
2018-09-09T08:49:55.328Z,22.72
2018-09-09T08:50:54.702Z,22.36
2018-09-09T08:51:54.958Z,22.26
2018-09-09T08:52:55.056Z,22.30
2018-09-09T08:53:55.233Z,22.29
2018-09-09T08:54:55.431Z,22.23
2018-09-09T08:55:55.616Z,22.22
2018-09-09T08:56:55.927Z,22.33
2018-09-09T08:57:56.025Z,22.38
2018-09-09T08:58:56.232Z,22.41
2018-09-09T08:59:56.743Z,22.47
2018-09-09T09:00:56.611Z,22.59
2018-09-09T09:01:56.787Z,22.84
2018-09-09T09:02:56.967Z,23.13
2018-09-09T09:03:57.157Z,23.39
2018-09-09T09:04:57.337Z,23.61
2018-09-09T09:05:57.524Z,23.84
2018-09-09T09:06:57.715Z,23.99
2018-09-09T09:07:57.969Z,24.16
2018-09-09T09:08:58.075Z,24.45
2018-09-09T09:09:58.254Z,24.68
2018-09-09T09:10:58.436Z,25.08
2018-09-09T09:11:58.627Z,25.29
2018-09-09T09:12:58.811Z,25.63
2018-09-09T09:13:59.096Z,26.25
2018-09-09T09:14:59.168Z,26.41
2018-09-09T09:15:59.475Z,26.43
2018-09-09T09:16:59.543Z,26.45
2018-09-09T09:17:59.732Z,26.21
2018-09-09T09:18:59.969Z,26.00
2018-09-09T09:20:00.265Z,25.55
2018-09-09T09:21:00.354Z,25.51
2018-09-09T09:22:00.568Z,25.53
2018-09-09T09:23:00.791Z,25.43
2018-09-09T09:24:00.897Z,25.35
2018-09-09T09:25:02.420Z,25.25
2018-09-09T09:26:01.245Z,25.21
2018-09-09T09:27:01.432Z,25.13
2018-09-09T09:28:01.714Z,25.07
2018-09-09T09:29:01.747Z,24.91
2018-09-09T09:30:01.925Z,24.93
2018-09-09T09:31:02.132Z,24.78
2018-09-09T09:32:02.291Z,24.78
2018-09-09T09:33:02.475Z,24.98
2018-09-09T09:34:02.652Z,24.95
2018-09-09T09:35:02.838Z,25.04
2018-09-09T09:36:03.020Z,24.73
2018-09-09T09:37:03.201Z,24.60
2018-09-09T09:38:03.380Z,24.66
2018-09-09T09:39:03.560Z,24.57
2018-09-09T09:40:05.441Z,24.43
2018-09-09T09:41:04.001Z,24.35
2018-09-09T09:42:04.159Z,24.18
2018-09-09T09:43:04.374Z,24.03
2018-09-09T09:44:04.556Z,24.03
2018-09-09T09:45:04.738Z,24.03
2018-09-09T09:46:04.927Z,24.01
2018-09-09T09:47:07.284Z,24.01
2018-09-09T09:48:06.416Z,24.05
2018-09-09T09:49:07.038Z,24.01
2018-09-09T09:50:08.985Z,24.03
2018-09-09T09:51:07.076Z,24.08
2018-09-09T09:52:06.963Z,24.18
2018-09-09T09:53:07.248Z,24.35
2018-09-09T09:54:07.099Z,24.32
2018-09-09T09:55:07.209Z,24.50
2018-09-09T09:56:08.383Z,24.58
2018-09-09T09:57:07.152Z,24.78
2018-09-09T09:58:06.914Z,24.85
2018-09-09T09:59:07.069Z,24.89
2018-09-09T10:00:07.251Z,24.91
2018-09-09T10:01:07.480Z,24.93
2018-09-09T10:02:08.947Z,24.99
2018-09-09T10:03:09.119Z,24.89
2018-09-09T10:04:07.855Z,25.11
2018-09-09T10:05:08.048Z,25.38
2018-09-09T10:06:08.236Z,26.02
2018-09-09T10:07:08.428Z,26.99
2018-09-09T10:08:12.261Z,27.35
2018-09-09T10:09:10.482Z,27.65
2018-09-09T10:10:08.973Z,28.04
2018-09-09T10:11:09.181Z,28.42
2018-09-09T10:12:09.387Z,28.54
2018-09-09T10:13:09.536Z,28.30
2018-09-09T10:14:09.719Z,28.23
2018-09-09T10:15:09.960Z,27.96
2018-09-09T10:16:10.081Z,27.65
2018-09-09T10:17:10.263Z,27.51
2018-09-09T10:18:10.472Z,27.32
2018-09-09T10:19:10.693Z,27.29
2018-09-09T10:20:10.882Z,27.45
2018-09-09T10:21:11.069Z,27.60
2018-09-09T10:22:11.248Z,27.75
2018-09-09T10:23:11.432Z,28.11
2018-09-09T10:24:11.610Z,28.51
2018-09-09T10:25:11.802Z,28.37
2018-09-09T10:26:11.983Z,28.42
2018-09-09T10:27:12.164Z,28.70
2018-09-09T10:28:12.349Z,29.12
2018-09-09T10:29:12.532Z,29.32
2018-09-09T10:30:12.773Z,29.42
2018-09-09T10:31:12.901Z,29.45
2018-09-09T10:32:13.076Z,29.75
2018-09-09T10:33:13.263Z,29.73
2018-09-09T10:34:13.439Z,29.69
2018-09-09T10:35:13.621Z,29.50
2018-09-09T10:36:13.806Z,29.41
2018-09-09T10:37:13.981Z,29.69
2018-09-09T10:38:14.200Z,30.09
2018-09-09T10:39:14.338Z,30.81
2018-09-09T10:40:14.529Z,31.54
2018-09-09T10:41:14.706Z,32.01
2018-09-09T10:42:14.891Z,32.34
2018-09-09T10:43:15.078Z,32.30
2018-09-09T10:44:15.263Z,32.21
2018-09-09T10:45:15.448Z,31.76
2018-09-09T10:46:15.769Z,31.70
2018-09-09T10:47:15.829Z,31.76
2018-09-09T10:48:16.018Z,31.34
2018-09-09T10:49:16.205Z,31.02
2018-09-09T10:50:16.393Z,31.15
2018-09-09T10:51:16.570Z,31.24
2018-09-09T10:52:16.770Z,31.05
2018-09-09T10:53:17.015Z,30.96
2018-09-09T10:54:17.176Z,30.31
2018-09-09T10:55:17.355Z,30.08
2018-09-09T10:56:17.548Z,30.24
2018-09-09T10:57:17.740Z,30.37
2018-09-09T10:58:17.921Z,30.97
2018-09-09T10:59:18.106Z,30.87
2018-09-09T11:00:18.291Z,31.33
2018-09-09T11:01:18.462Z,32.15
2018-09-09T11:02:18.664Z,32.34
2018-09-09T11:03:18.846Z,32.19
2018-09-09T11:04:19.033Z,32.77
2018-09-09T11:05:19.217Z,32.59
2018-09-09T11:06:19.403Z,32.87
2018-09-09T11:07:19.592Z,32.26
2018-09-09T11:08:19.799Z,31.93
2018-09-09T11:09:19.982Z,31.58
2018-09-09T11:10:20.189Z,31.49
2018-09-09T11:11:20.383Z,31.18
2018-09-09T11:12:20.566Z,31.14
2018-09-09T11:13:20.803Z,30.50
2018-09-09T11:14:20.945Z,30.63
2018-09-09T11:15:21.131Z,30.54
2018-09-09T11:16:21.355Z,30.43
2018-09-09T11:17:21.519Z,30.47
2018-09-09T11:18:21.990Z,30.54
2018-09-09T11:19:22.697Z,30.57
2018-09-09T11:20:22.868Z,30.57
2018-09-09T11:21:22.664Z,30.59
2018-09-09T11:22:23.949Z,30.80
2018-09-09T11:23:23.378Z,31.07
2018-09-09T11:24:24.394Z,31.02
2018-09-09T11:25:24.012Z,31.27
2018-09-09T11:26:24.031Z,31.20
2018-09-09T11:27:23.810Z,30.81
2018-09-09T11:28:24.879Z,30.83
2018-09-09T11:29:24.106Z,30.62
2018-09-09T11:30:24.368Z,30.59
2018-09-09T11:31:25.484Z,30.30
2018-09-09T11:32:24.683Z,30.24
2018-09-09T11:33:25.251Z,30.16
2018-09-09T11:34:25.208Z,30.09
2018-09-09T11:35:25.561Z,30.08
2018-09-09T11:36:26.574Z,30.21
2018-09-09T11:37:27.581Z,30.08
2018-09-09T11:38:25.468Z,30.09
2018-09-09T11:39:25.664Z,30.75
2018-09-09T11:40:25.844Z,31.12
2018-09-09T11:41:26.025Z,31.12
2018-09-09T11:42:26.249Z,31.84
2018-09-09T11:43:27.941Z,31.97
2018-09-09T11:44:26.605Z,31.76
2018-09-09T11:45:26.797Z,31.56
2018-09-09T11:46:27.344Z,31.34
2018-09-09T11:47:29.369Z,32.16
2018-09-09T11:48:28.491Z,31.99
2018-09-09T11:49:27.734Z,31.36
2018-09-09T11:50:27.995Z,31.62
2018-09-09T11:51:27.999Z,31.92
2018-09-09T11:52:28.058Z,32.09
2018-09-09T11:53:28.802Z,32.59
2018-09-09T11:54:28.860Z,33.30
2018-09-09T11:55:28.586Z,33.69
2018-09-09T11:56:28.789Z,33.76
2018-09-09T11:57:29.166Z,33.62
2018-09-09T11:58:29.187Z,33.89
2018-09-09T11:59:29.421Z,34.23
2018-09-09T12:00:30.082Z,34.33
2018-09-09T12:01:30.065Z,34.42
2018-09-09T12:02:29.937Z,34.11
2018-09-09T12:03:30.119Z,34.11
2018-09-09T12:04:30.297Z,33.92
2018-09-09T12:05:30.498Z,34.45
2018-09-09T12:06:30.697Z,34.45
2018-09-09T12:07:31.993Z,34.57
2018-09-09T12:08:31.063Z,34.45
2018-09-09T12:09:31.258Z,33.68
2018-09-09T12:10:31.443Z,33.47
2018-09-09T12:11:31.796Z,33.53
2018-09-09T12:12:31.801Z,33.19
2018-09-09T12:13:31.988Z,32.95
2018-09-09T12:14:32.221Z,32.71
2018-09-09T12:15:32.301Z,32.34
2018-09-09T12:16:32.483Z,31.99
2018-09-09T12:17:32.652Z,31.44
2018-09-09T12:18:32.845Z,31.18
2018-09-09T12:19:33.121Z,30.96
2018-09-09T12:20:33.243Z,30.61
2018-09-09T12:21:33.439Z,30.32
2018-09-09T12:22:33.619Z,30.03
2018-09-09T12:23:33.824Z,29.94
2018-09-09T12:24:33.990Z,29.90
2018-09-09T12:25:34.180Z,29.76
2018-09-09T12:26:34.365Z,29.49
2018-09-09T12:27:34.770Z,29.51
2018-09-09T12:28:34.751Z,29.51
2018-09-09T12:29:34.932Z,29.59
2018-09-09T12:30:35.122Z,29.41
2018-09-09T12:31:35.309Z,29.19
2018-09-09T12:32:35.530Z,29.27
2018-09-09T12:33:35.679Z,29.07
2018-09-09T12:34:35.931Z,29.14
2018-09-09T12:35:36.093Z,29.16
2018-09-09T12:36:36.278Z,29.36
2018-09-09T12:37:36.514Z,29.22
2018-09-09T12:38:36.642Z,29.10
2018-09-09T12:39:36.827Z,29.17
2018-09-09T12:40:37.031Z,29.23
2018-09-09T12:41:37.221Z,29.24
2018-09-09T12:42:37.415Z,29.19
2018-09-09T12:43:37.596Z,29.19
2018-09-09T12:44:37.793Z,29.26
2018-09-09T12:45:37.980Z,28.93
2018-09-09T12:46:38.175Z,28.81
2018-09-09T12:47:38.364Z,28.85
2018-09-09T12:48:38.545Z,28.93
2018-09-09T12:49:38.756Z,28.86
2018-09-09T12:50:38.983Z,28.79
2018-09-09T12:51:39.144Z,28.84
2018-09-09T12:52:39.331Z,28.85
2018-09-09T12:53:39.529Z,28.44
2018-09-09T12:54:39.704Z,28.07